sensor_id;sensor_type;location;lat;lon;timestamp;pressure;altitude;pressure_sealevel;temperature;humidity
7052;BME280;3567;52.444;13.556;2023-03-20T00:00:46;101205.75;;;11.10;100.00
7052;BME280;3567;52.444;13.556;2023-03-20T00:03:12;101202.63;;;11.13;100.00
7052;BME280;3567;52.444;13.556;2023-03-20T00:05:38;101202.03;;;11.11;100.00
7052;BME280;3567;52.444;13.556;2023-03-20T00:08:04;101204.72;;;11.11;100.00
7052;BME280;3567;52.444;13.556;2023-03-20T00:10:34;101205.13;;;11.08;100.00
7052;BME280;3567;52.444;13.556;2023-03-20T00:13:01;101201.88;;;11.06;100.00
7052;BME280;3567;52.444;13.556;2023-03-20T00:15:36;101208.28;;;11.05;100.00
7052;BME280;3567;52.444;13.556;2023-03-20T00:18:03;101203.34;;;11.01;100.00
7052;BME280;3567;52.444;13.556;2023-03-20T00:20:36;101206.69;;;10.97;100.00
7052;BME280;3567;52.444;13.556;2023-03-20T00:23:01;101208.19;;;10.93;100.00
7052;BME280;3567;52.444;13.556;2023-03-20T00:25:28;101205.34;;;10.88;100.00
7052;BME280;3567;52.444;13.556;2023-03-20T00:27:54;101212.41;;;10.82;100.00
7052;BME280;3567;52.444;13.556;2023-03-20T00:32:47;101211.25;;;10.65;100.00
7052;BME280;3567;52.444;13.556;2023-03-20T00:35:27;101199.78;;;10.58;100.00
7052;BME280;3567;52.444;13.556;2023-03-20T00:37:54;101203.75;;;10.48;100.00
7052;BME280;3567;52.444;13.556;2023-03-20T00:40:20;101195.19;;;10.40;100.00
7052;BME280;3567;52.444;13.556;2023-03-20T00:42:57;101199.16;;;10.31;100.00
7052;BME280;3567;52.444;13.556;2023-03-20T00:45:23;101196.72;;;10.16;100.00
7052;BME280;3567;52.444;13.556;2023-03-20T00:47:49;101193.91;;;10.04;100.00
7052;BME280;3567;52.444;13.556;2023-03-20T00:50:21;101195.81;;;9.90;100.00
7052;BME280;3567;52.444;13.556;2023-03-20T00:52:48;101190.53;;;9.77;100.00
7052;BME280;3567;52.444;13.556;2023-03-20T00:55:14;101186.25;;;9.63;100.00
7052;BME280;3567;52.444;13.556;2023-03-20T00:57:53;101193.88;;;9.53;100.00
7052;BME280;3567;52.444;13.556;2023-03-20T01:00:21;101192.91;;;9.40;100.00
7052;BME280;3567;52.444;13.556;2023-03-20T01:02:48;101190.88;;;9.29;100.00
7052;BME280;3567;52.444;13.556;2023-03-20T01:05:15;101183.06;;;9.21;100.00
7052;BME280;3567;52.444;13.556;2023-03-20T01:07:41;101192.94;;;9.14;100.00
7052;BME280;3567;52.444;13.556;2023-03-20T01:10:06;101189.03;;;9.10;100.00
7052;BME280;3567;52.444;13.556;2023-03-20T01:12:32;101183.50;;;9.11;100.00
7052;BME280;3567;52.444;13.556;2023-03-20T01:14:58;101185.56;;;9.09;100.00
7052;BME280;3567;52.444;13.556;2023-03-20T01:17:26;101187.00;;;9.05;100.00
7052;BME280;3567;52.444;13.556;2023-03-20T01:19:52;101184.97;;;9.01;100.00
7052;BME280;3567;52.444;13.556;2023-03-20T01:22:17;101194.00;;;9.00;100.00
7052;BME280;3567;52.444;13.556;2023-03-20T01:24:43;101190.09;;;8.96;100.00
7052;BME280;3567;52.444;13.556;2023-03-20T01:27:13;101195.44;;;8.89;100.00
7052;BME280;3567;52.444;13.556;2023-03-20T01:29:40;101193.41;;;8.84;100.00
7052;BME280;3567;52.444;13.556;2023-03-20T01:32:15;101192.16;;;8.80;100.00
7052;BME280;3567;52.444;13.556;2023-03-20T01:34:40;101192.16;;;8.80;100.00
7052;BME280;3567;52.444;13.556;2023-03-20T01:37:11;101192.75;;;8.82;100.00
7052;BME280;3567;52.444;13.556;2023-03-20T01:39:37;101192.16;;;8.93;100.00
7052;BME280;3567;52.444;13.556;2023-03-20T01:42:05;101203.66;;;9.01;100.00
7052;BME280;3567;52.444;13.556;2023-03-20T01:44:33;101197.28;;;9.02;100.00
7052;BME280;3567;52.444;13.556;2023-03-20T01:47:02;101193.59;;;8.96;100.00
7052;BME280;3567;52.444;13.556;2023-03-20T01:51:54;101193.41;;;8.91;100.00
7052;BME280;3567;52.444;13.556;2023-03-20T01:54:34;101203.66;;;8.94;100.00
7052;BME280;3567;52.444;13.556;2023-03-20T01:57:14;101191.97;;;8.95;100.00
7052;BME280;3567;52.444;13.556;2023-03-20T01:59:47;101193.78;;;8.95;100.00
7052;BME280;3567;52.444;13.556;2023-03-20T02:02:17;101192.56;;;8.90;100.00
7052;BME280;3567;52.444;13.556;2023-03-20T02:04:45;101181.88;;;8.90;100.00
7052;BME280;3567;52.444;13.556;2023-03-20T02:07:14;101178.78;;;8.93;100.00
7052;BME280;3567;52.444;13.556;2023-03-20T02:09:41;101181.06;;;8.97;100.00
7052;BME280;3567;52.444;13.556;2023-03-20T02:12:06;101184.97;;;9.01;100.00
7052;BME280;3567;52.444;13.556;2023-03-20T02:14:32;101191.75;;;8.97;100.00
7052;BME280;3567;52.444;13.556;2023-03-20T02:16:58;101192.16;;;8.93;100.00
7052;BME280;3567;52.444;13.556;2023-03-20T02:23:13;101196.28;;;8.89;100.00
7052;BME280;3567;52.444;13.556;2023-03-20T02:26:01;101201.78;;;8.95;100.00
7052;BME280;3567;52.444;13.556;2023-03-20T02:39:47;101182.66;;;9.24;100.00
7052;BME280;3567;52.444;13.556;2023-03-20T02:42:39;101190.28;;;9.27;100.00
7052;BME280;3567;52.444;13.556;2023-03-20T02:45:17;101190.47;;;9.32;100.00
7052;BME280;3567;52.444;13.556;2023-03-20T02:50:50;101190.47;;;9.32;100.00
7052;BME280;3567;52.444;13.556;2023-03-20T02:54:15;101197.44;;;9.33;100.00
7052;BME280;3567;52.444;13.556;2023-03-20T02:56:36;101199.09;;;9.34;100.00
7052;BME280;3567;52.444;13.556;2023-03-20T02:59:11;101197.44;;;9.33;100.00
7052;BME280;3567;52.444;13.556;2023-03-20T03:01:51;101199.91;;;9.35;100.00
7052;BME280;3567;52.444;13.556;2023-03-20T03:04:22;101193.31;;;9.37;100.00
7052;BME280;3567;52.444;13.556;2023-03-20T03:06:49;101193.94;;;9.39;100.00
7052;BME280;3567;52.444;13.556;2023-03-20T03:09:24;101192.50;;;9.43;100.00
7052;BME280;3567;52.444;13.556;2023-03-20T03:12:09;101194.13;;;9.44;100.00
7052;BME280;3567;52.444;13.556;2023-03-20T03:14:40;101196.81;;;9.44;100.00
7052;BME280;3567;52.444;13.556;2023-03-20T03:17:09;101194.94;;;9.45;100.00
7052;BME280;3567;52.444;13.556;2023-03-20T03:19:36;101193.09;;;9.45;100.00
7052;BME280;3567;52.444;13.556;2023-03-20T03:22:03;101195.78;;;9.45;100.00
7052;BME280;3567;52.444;13.556;2023-03-20T03:24:32;101196.59;;;9.46;100.00
7052;BME280;3567;52.444;13.556;2023-03-20T03:27:00;101197.41;;;9.47;100.00
7052;BME280;3567;52.444;13.556;2023-03-20T03:29:30;101200.09;;;9.47;100.00
7052;BME280;3567;52.444;13.556;2023-03-20T03:31:59;101206.25;;;9.47;100.00
7052;BME280;3567;52.444;13.556;2023-03-20T03:34:25;101199.03;;;9.48;100.00
7052;BME280;3567;52.444;13.556;2023-03-20T03:37:05;101195.38;;;9.49;100.00
7052;BME280;3567;52.444;13.556;2023-03-20T03:44:45;101196.78;;;9.51;100.00
7052;BME280;3567;52.444;13.556;2023-03-20T03:47:21;101201.09;;;9.52;100.00
7052;BME280;3567;52.444;13.556;2023-03-20T03:49:59;101206.25;;;9.54;100.00
7052;BME280;3567;52.444;13.556;2023-03-20T03:52:27;101201.09;;;9.52;100.00
7052;BME280;3567;52.444;13.556;2023-03-20T03:54:59;101206.25;;;9.54;100.00
7052;BME280;3567;52.444;13.556;2023-03-20T03:57:32;101208.94;;;9.54;100.00
7052;BME280;3567;52.444;13.556;2023-03-20T04:00:03;101204.59;;;9.53;100.00
7052;BME280;3567;52.444;13.556;2023-03-20T04:02:31;101209.13;;;9.52;100.00
7052;BME280;3567;52.444;13.556;2023-03-20T04:04:58;101214.47;;;9.52;100.00
7052;BME280;3567;52.444;13.556;2023-03-20T04:07:27;101215.28;;;9.53;100.00
7052;BME280;3567;52.444;13.556;2023-03-20T04:09:53;101213.03;;;9.50;100.00
7052;BME280;3567;52.444;13.556;2023-03-20T04:12:39;101212.63;;;9.53;100.00
7052;BME280;3567;52.444;13.556;2023-03-20T04:15:06;101214.69;;;9.51;100.00
7052;BME280;3567;52.444;13.556;2023-03-20T04:17:32;101214.09;;;9.49;100.00
7052;BME280;3567;52.444;13.556;2023-03-20T04:19:57;101208.09;;;9.47;100.00
7052;BME280;3567;52.444;13.556;2023-03-20T04:22:23;101219.22;;;9.43;100.00
7052;BME280;3567;52.444;13.556;2023-03-20T04:24:48;101214.91;;;9.42;100.00
7052;BME280;3567;52.444;13.556;2023-03-20T04:27:13;101219.66;;;9.40;100.00
7052;BME280;3567;52.444;13.556;2023-03-20T04:29:39;101228.69;;;9.39;100.00
7052;BME280;3567;52.444;13.556;2023-03-20T04:32:05;101235.91;;;9.39;100.00
7052;BME280;3567;52.444;13.556;2023-03-20T04:34:30;101235.09;;;9.38;100.00
7052;BME280;3567;52.444;13.556;2023-03-20T04:36:56;101238.97;;;9.36;100.00
7052;BME280;3567;52.444;13.556;2023-03-20T04:39:21;101235.50;;;9.35;100.00
7052;BME280;3567;52.444;13.556;2023-03-20T04:41:47;101234.88;;;9.33;100.00
7052;BME280;3567;52.444;13.556;2023-03-20T04:44:12;101243.94;;;9.32;100.00
7052;BME280;3567;52.444;13.556;2023-03-20T04:46:37;101244.94;;;9.31;100.00
7052;BME280;3567;52.444;13.556;2023-03-20T04:49:03;101240.63;;;9.30;100.00
7052;BME280;3567;52.444;13.556;2023-03-20T04:51:28;101241.44;;;9.31;100.00
7052;BME280;3567;52.444;13.556;2023-03-20T04:53:53;101242.28;;;9.31;100.00
7052;BME280;3567;52.444;13.556;2023-03-20T04:56:19;101241.44;;;9.31;100.00
7052;BME280;3567;52.444;13.556;2023-03-20T04:58:44;101244.75;;;9.33;100.00
7052;BME280;3567;52.444;13.556;2023-03-20T05:01:09;101235.50;;;9.35;100.00
7052;BME280;3567;52.444;13.556;2023-03-20T05:03:35;101234.44;;;9.36;100.00
7052;BME280;3567;52.444;13.556;2023-03-20T05:06:00;101240.63;;;9.37;100.00
7052;BME280;3567;52.444;13.556;2023-03-20T05:08:25;101243.50;;;9.35;100.00
7052;BME280;3567;52.444;13.556;2023-03-20T05:10:51;101239.41;;;9.33;100.00
7052;BME280;3567;52.444;13.556;2023-03-20T05:13:17;101234.06;;;9.33;100.00
7052;BME280;3567;52.444;13.556;2023-03-20T05:15:42;101242.09;;;9.33;100.00
7052;BME280;3567;52.444;13.556;2023-03-20T05:18:08;101247.44;;;9.33;100.00
7052;BME280;3567;52.444;13.556;2023-03-20T05:20:34;101249.28;;;9.32;100.00
7052;BME280;3567;52.444;13.556;2023-03-20T05:23:00;101245.97;;;9.30;100.00
7052;BME280;3567;52.444;13.556;2023-03-20T05:25:26;101236.31;;;9.29;100.00
7052;BME280;3567;52.444;13.556;2023-03-20T05:27:51;101243.53;;;9.29;100.00
7052;BME280;3567;52.444;13.556;2023-03-20T05:30:16;101238.19;;;9.29;100.00
7052;BME280;3567;52.444;13.556;2023-03-20T05:32:44;101232.00;;;9.28;100.00
7052;BME280;3567;52.444;13.556;2023-03-20T05:35:10;101241.06;;;9.27;100.00
7052;BME280;3567;52.444;13.556;2023-03-20T05:37:36;101245.38;;;9.28;100.00
7052;BME280;3567;52.444;13.556;2023-03-20T05:40:02;101252.38;;;9.29;100.00
7052;BME280;3567;52.444;13.556;2023-03-20T05:42:27;101242.28;;;9.31;100.00
7052;BME280;3567;52.444;13.556;2023-03-20T05:44:52;101247.22;;;9.34;100.00
7052;BME280;3567;52.444;13.556;2023-03-20T05:47:18;101248.25;;;9.33;100.00
7052;BME280;3567;52.444;13.556;2023-03-20T05:49:43;101240.22;;;9.33;100.00
7052;BME280;3567;52.444;13.556;2023-03-20T05:52:08;101245.34;;;9.35;100.00
7052;BME280;3567;52.444;13.556;2023-03-20T05:54:34;101248.63;;;9.37;100.00
7052;BME280;3567;52.444;13.556;2023-03-20T05:56:59;101251.94;;;9.39;100.00
7052;BME280;3567;52.444;13.556;2023-03-20T05:59:25;101247.19;;;9.41;100.00
7052;BME280;3567;52.444;13.556;2023-03-20T06:01:50;101243.09;;;9.45;100.00
7052;BME280;3567;52.444;13.556;2023-03-20T06:04:16;101241.84;;;9.48;100.00
7052;BME280;3567;52.444;13.556;2023-03-20T06:06:41;101243.28;;;9.50;100.00
7052;BME280;3567;52.444;13.556;2023-03-20T06:09:07;101250.06;;;9.53;100.00
7052;BME280;3567;52.444;13.556;2023-03-20T06:11:32;101255.00;;;9.56;100.00
7052;BME280;3567;52.444;13.556;2023-03-20T06:13:57;101257.25;;;9.59;100.00
7052;BME280;3567;52.444;13.556;2023-03-20T06:16:23;101256.63;;;9.63;100.00
7052;BME280;3567;52.444;13.556;2023-03-20T06:18:49;101260.75;;;9.66;100.00
7052;BME280;3567;52.444;13.556;2023-03-20T06:21:14;101263.59;;;9.71;100.00
7052;BME280;3567;52.444;13.556;2023-03-20T06:23:40;101264.84;;;9.75;100.00
7052;BME280;3567;52.444;13.556;2023-03-20T06:26:05;101266.84;;;9.80;100.00
7052;BME280;3567;52.444;13.556;2023-03-20T06:28:31;101270.53;;;9.85;100.00
7052;BME280;3567;52.444;13.556;2023-03-20T06:30:56;101266.41;;;9.89;100.00
7052;BME280;3567;52.444;13.556;2023-03-20T06:33:22;101276.72;;;9.92;100.00
7052;BME280;3567;52.444;13.556;2023-03-20T06:35:47;101279.16;;;9.94;100.00
7052;BME280;3567;52.444;13.556;2023-03-20T06:38:13;101288.22;;;10.00;100.00
7052;BME280;3567;52.444;13.556;2023-03-20T06:40:39;101291.50;;;10.02;100.00
7052;BME280;3567;52.444;13.556;2023-03-20T06:43:05;101284.50;;;10.01;100.00
7052;BME280;3567;52.444;13.556;2023-03-20T06:45:31;101293.75;;;10.05;100.00
7052;BME280;3567;52.444;13.556;2023-03-20T06:47:56;101302.59;;;10.05;100.00
7052;BME280;3567;52.444;13.556;2023-03-20T06:50:22;101300.97;;;10.04;100.00
7052;BME280;3567;52.444;13.556;2023-03-20T06:52:47;101299.53;;;10.02;100.00
7052;BME280;3567;52.444;13.556;2023-03-20T06:55:13;101303.22;;;10.01;100.00
7052;BME280;3567;52.444;13.556;2023-03-20T06:57:38;101306.72;;;10.01;100.00
7052;BME280;3567;52.444;13.556;2023-03-20T07:00:04;101307.56;;;10.02;100.00
7052;BME280;3567;52.444;13.556;2023-03-20T07:02:30;101304.72;;;9.96;100.00
7052;BME280;3567;52.444;13.556;2023-03-20T07:04:56;101311.06;;;9.95;100.00
7052;BME280;3567;52.444;13.556;2023-03-20T07:07:21;101328.97;;;9.95;100.00
7052;BME280;3567;52.444;13.556;2023-03-20T07:09:47;101327.56;;;9.92;100.00
7052;BME280;3567;52.444;13.556;2023-03-20T07:12:14;101322.63;;;9.89;100.00
7052;BME280;3567;52.444;13.556;2023-03-20T07:14:41;101330.88;;;9.88;100.00
7052;BME280;3567;52.444;13.556;2023-03-20T07:17:08;101328.59;;;9.85;100.00
7052;BME280;3567;52.444;13.556;2023-03-20T07:19:35;101332.75;;;9.81;100.00
7052;BME280;3567;52.444;13.556;2023-03-20T07:22:02;101334.78;;;9.79;100.00
7052;BME280;3567;52.444;13.556;2023-03-20T07:24:28;101338.72;;;9.76;100.00
7052;BME280;3567;52.444;13.556;2023-03-20T07:26:54;101338.72;;;9.76;100.00
7052;BME280;3567;52.444;13.556;2023-03-20T07:29:19;101338.06;;;9.74;100.00
7052;BME280;3567;52.444;13.556;2023-03-20T07:31:44;101335.84;;;9.71;100.00
7052;BME280;3567;52.444;13.556;2023-03-20T07:34:11;101340.16;;;9.72;100.00
7052;BME280;3567;52.444;13.556;2023-03-20T07:36:36;101335.84;;;9.71;100.00
7052;BME280;3567;52.444;13.556;2023-03-20T07:39:02;101339.34;;;9.71;100.00
7052;BME280;3567;52.444;13.556;2023-03-20T07:41:28;101338.72;;;9.69;100.00
7052;BME280;3567;52.444;13.556;2023-03-20T07:43:53;101342.63;;;9.67;100.00
7052;BME280;3567;52.444;13.556;2023-03-20T07:46:18;101350.44;;;9.62;100.00
7052;BME280;3567;52.444;13.556;2023-03-20T07:48:44;101346.53;;;9.58;100.00
7052;BME280;3567;52.444;13.556;2023-03-20T07:51:09;101351.69;;;9.53;100.00
7052;BME280;3567;52.444;13.556;2023-03-20T07:53:34;101360.53;;;9.47;100.00
7052;BME280;3567;52.444;13.556;2023-03-20T07:56:01;101354.97;;;9.41;100.00
7052;BME280;3567;52.444;13.556;2023-03-20T07:58:26;101360.53;;;9.40;100.00
7052;BME280;3567;52.444;13.556;2023-03-20T08:00:51;101359.09;;;9.37;100.00
7052;BME280;3567;52.444;13.556;2023-03-20T08:03:17;101361.75;;;9.37;100.00
7052;BME280;3567;52.444;13.556;2023-03-20T08:05:42;101366.50;;;9.35;100.00
7052;BME280;3567;52.444;13.556;2023-03-20T08:08:08;101368.13;;;9.30;100.00
7052;BME280;3567;52.444;13.556;2023-03-20T08:10:33;101373.06;;;9.26;100.00
7052;BME280;3567;52.444;13.556;2023-03-20T08:12:59;101373.47;;;9.23;100.00
7052;BME280;3567;52.444;13.556;2023-03-20T08:15:24;101367.50;;;9.21;100.00
7052;BME280;3567;52.444;13.556;2023-03-20T08:17:50;101373.06;;;9.19;100.00
7052;BME280;3567;52.444;13.556;2023-03-20T08:20:15;101374.91;;;9.19;100.00
7052;BME280;3567;52.444;13.556;2023-03-20T08:22:43;101373.28;;;9.18;100.00
7052;BME280;3567;52.444;13.556;2023-03-20T08:25:09;101376.97;;;9.24;100.00
7052;BME280;3567;52.444;13.556;2023-03-20T08:27:35;101377.63;;;9.32;100.00
7052;BME280;3567;52.444;13.556;2023-03-20T08:30:02;101379.69;;;9.43;100.00
7052;BME280;3567;52.444;13.556;2023-03-20T08:32:27;101385.22;;;9.55;100.00
7052;BME280;3567;52.444;13.556;2023-03-20T08:34:53;101390.38;;;9.70;100.00
7052;BME280;3567;52.444;13.556;2023-03-20T08:37:21;101383.75;;;9.79;100.00
7052;BME280;3567;52.444;13.556;2023-03-20T08:39:47;101398.97;;;9.85;100.00
7052;BME280;3567;52.444;13.556;2023-03-20T08:42:13;101391.16;;;9.90;100.00
7052;BME280;3567;52.444;13.556;2023-03-20T08:44:38;101396.09;;;9.93;100.00
7052;BME280;3567;52.444;13.556;2023-03-20T08:47:03;101397.56;;;9.96;100.00
7052;BME280;3567;52.444;13.556;2023-03-20T08:49:32;101400.84;;;9.98;100.00
7052;BME280;3567;52.444;13.556;2023-03-20T08:51:58;101402.25;;;10.01;100.00
7052;BME280;3567;52.444;13.556;2023-03-20T08:54:24;101409.28;;;10.02;100.00
7052;BME280;3567;52.444;13.556;2023-03-20T08:56:49;101400.22;;;10.03;100.00
7052;BME280;3567;52.444;13.556;2023-03-20T08:59:15;101396.09;;;10.07;100.00
7052;BME280;3567;52.444;13.556;2023-03-20T09:01:40;101396.06;;;10.13;100.00
7052;BME280;3567;52.444;13.556;2023-03-20T09:04:05;101397.91;;;10.33;100.00
7052;BME280;3567;52.444;13.556;2023-03-20T09:06:35;101402.31;;;10.72;100.00
7052;BME280;3567;52.444;13.556;2023-03-20T09:09:00;101397.84;;;10.97;100.00
7052;BME280;3567;52.444;13.556;2023-03-20T09:11:25;101392.91;;;11.26;100.00
7052;BME280;3567;52.444;13.556;2023-03-20T09:13:51;101399.56;;;11.48;99.43
7052;BME280;3567;52.444;13.556;2023-03-20T09:16:16;101405.50;;;11.82;96.71
7052;BME280;3567;52.444;13.556;2023-03-20T09:18:41;101399.94;;;12.02;97.06
7052;BME280;3567;52.444;13.556;2023-03-20T09:21:07;101403.28;;;11.97;94.18
7052;BME280;3567;52.444;13.556;2023-03-20T09:23:32;101410.38;;;11.92;94.51
7052;BME280;3567;52.444;13.556;2023-03-20T09:25:58;101409.38;;;11.86;94.01
7052;BME280;3567;52.444;13.556;2023-03-20T09:28:24;101409.63;;;11.85;94.41
7052;BME280;3567;52.444;13.556;2023-03-20T09:30:54;101405.09;;;11.78;93.70
7052;BME280;3567;52.444;13.556;2023-03-20T09:33:19;101411.13;;;11.74;93.10
7052;BME280;3567;52.444;13.556;2023-03-20T09:35:45;101412.16;;;11.73;92.66
7052;BME280;3567;52.444;13.556;2023-03-20T09:38:10;101415.50;;;11.68;92.00
7052;BME280;3567;52.444;13.556;2023-03-20T09:40:49;101406.47;;;11.63;91.37
7052;BME280;3567;52.444;13.556;2023-03-20T09:46:00;101409.53;;;11.66;91.79
7052;BME280;3567;52.444;13.556;2023-03-20T09:48:51;101406.84;;;11.66;91.43
7052;BME280;3567;52.444;13.556;2023-03-20T09:54:09;101404.59;;;11.63;91.45
7052;BME280;3567;52.444;13.556;2023-03-20T09:56:39;101406.19;;;11.71;90.93
7052;BME280;3567;52.444;13.556;2023-03-20T09:59:05;101403.00;;;11.80;90.75
7052;BME280;3567;52.444;13.556;2023-03-20T10:01:39;101402.13;;;11.93;90.78
7052;BME280;3567;52.444;13.556;2023-03-20T10:04:09;101410.03;;;12.25;90.21
7052;BME280;3567;52.444;13.556;2023-03-20T10:06:35;101412.88;;;12.30;86.51
7052;BME280;3567;52.444;13.556;2023-03-20T10:09:05;101411.03;;;12.30;87.80
7052;BME280;3567;52.444;13.556;2023-03-20T10:22:47;101415.72;;;12.17;87.20
7052;BME280;3567;52.444;13.556;2023-03-20T10:27:54;101409.06;;;12.01;88.13
7052;BME280;3567;52.444;13.556;2023-03-20T10:34:00;101404.09;;;11.98;88.36
7052;BME280;3567;52.444;13.556;2023-03-20T10:39:29;101396.59;;;11.88;88.20
7052;BME280;3567;52.444;13.556;2023-03-20T10:41:59;101403.00;;;11.80;88.30
7052;BME280;3567;52.444;13.556;2023-03-20T10:44:32;101393.16;;;11.74;88.47
7052;BME280;3567;52.444;13.556;2023-03-20T10:47:00;101393.22;;;11.68;88.94
7052;BME280;3567;52.444;13.556;2023-03-20T10:49:40;101398.78;;;11.66;88.80
7052;BME280;3567;52.444;13.556;2023-03-20T10:52:24;101397.78;;;11.67;88.36
7052;BME280;3567;52.444;13.556;2023-03-20T10:55:04;101399.63;;;11.67;88.84
7052;BME280;3567;52.444;13.556;2023-03-20T10:57:34;101396.09;;;11.66;88.09
7052;BME280;3567;52.444;13.556;2023-03-20T11:00:04;101394.69;;;11.64;88.44
7052;BME280;3567;52.444;13.556;2023-03-20T11:02:35;101404.38;;;11.65;88.55
7052;BME280;3567;52.444;13.556;2023-03-20T11:05:21;101392.00;;;11.64;87.62
7052;BME280;3567;52.444;13.556;2023-03-20T11:07:50;101397.31;;;11.70;88.55
7052;BME280;3567;52.444;13.556;2023-03-20T11:10:17;101398.75;;;11.73;87.50
7052;BME280;3567;52.444;13.556;2023-03-20T11:12:44;101397.78;;;11.67;86.51
7052;BME280;3567;52.444;13.556;2023-03-20T11:15:14;101389.50;;;11.69;87.41
7052;BME280;3567;52.444;13.556;2023-03-20T11:17:50;101384.28;;;11.74;86.66
7052;BME280;3567;52.444;13.556;2023-03-20T11:20:16;101379.09;;;11.79;86.64
7052;BME280;3567;52.444;13.556;2023-03-20T11:22:41;101383.31;;;11.93;85.82
7052;BME280;3567;52.444;13.556;2023-03-20T11:25:22;101386.28;;;12.03;85.51
7052;BME280;3567;52.444;13.556;2023-03-20T11:27:48;101382.28;;;12.13;84.62
7052;BME280;3567;52.444;13.556;2023-03-20T11:30:15;101384.06;;;12.19;84.71
7052;BME280;3567;52.444;13.556;2023-03-20T11:32:47;101383.13;;;12.31;84.42
7052;BME280;3567;52.444;13.556;2023-03-20T11:35:29;101380.34;;;12.38;84.49
7052;BME280;3567;52.444;13.556;2023-03-20T11:38:28;101372.66;;;12.42;84.04
7052;BME280;3567;52.444;13.556;2023-03-20T11:40:56;101381.53;;;12.42;83.90
7052;BME280;3567;52.444;13.556;2023-03-20T11:43:24;101374.75;;;12.40;83.44
7052;BME280;3567;52.444;13.556;2023-03-20T11:45:58;101371.09;;;12.34;83.87
7052;BME280;3567;52.444;13.556;2023-03-20T11:48:36;101378.09;;;12.35;83.83
7052;BME280;3567;52.444;13.556;2023-03-20T11:51:04;101373.53;;;12.36;83.54
7052;BME280;3567;52.444;13.556;2023-03-20T11:56:02;101370.56;;;12.44;84.33
7052;BME280;3567;52.444;13.556;2023-03-20T11:58:28;101351.53;;;12.45;83.88
7052;BME280;3567;52.444;13.556;2023-03-20T12:00:54;101355.19;;;12.51;84.07
7052;BME280;3567;52.444;13.556;2023-03-20T12:03:41;101356.31;;;12.43;80.93
7052;BME280;3567;52.444;13.556;2023-03-20T12:06:12;101350.66;;;12.33;81.50
7052;BME280;3567;52.444;13.556;2023-03-20T12:08:39;101347.53;;;12.36;82.06
7052;BME280;3567;52.444;13.556;2023-03-20T12:11:35;101350.06;;;12.31;82.71
7052;BME280;3567;52.444;13.556;2023-03-20T12:14:07;101349.31;;;12.24;82.32
7052;BME280;3567;52.444;13.556;2023-03-20T12:16:38;101352.59;;;12.26;83.38
7052;BME280;3567;52.444;13.556;2023-03-20T12:19:11;101354.09;;;12.22;82.71
7052;BME280;3567;52.444;13.556;2023-03-20T12:21:45;101342.28;;;12.23;82.90
7052;BME280;3567;52.444;13.556;2023-03-20T12:24:28;101347.97;;;12.33;83.33
7052;BME280;3567;52.444;13.556;2023-03-20T12:27:16;101345.34;;;12.45;83.23
7052;BME280;3567;52.444;13.556;2023-03-20T12:32:53;101331.94;;;12.56;81.71
7052;BME280;3567;52.444;13.556;2023-03-20T12:35:28;101321.28;;;12.68;81.08
7052;BME280;3567;52.444;13.556;2023-03-20T12:37:54;101323.84;;;12.75;81.06
7052;BME280;3567;52.444;13.556;2023-03-20T12:40:37;101319.34;;;12.87;79.96
7052;BME280;3567;52.444;13.556;2023-03-20T12:43:13;101315.78;;;13.17;77.37
7052;BME280;3567;52.444;13.556;2023-03-20T12:45:46;101303.44;;;13.39;77.95
7052;BME280;3567;52.444;13.556;2023-03-20T12:48:23;101309.31;;;13.59;77.79
7052;BME280;3567;52.444;13.556;2023-03-20T12:51:02;101310.81;;;13.55;75.51
7052;BME280;3567;52.444;13.556;2023-03-20T12:56:41;101308.28;;;13.19;75.56
7052;BME280;3567;52.444;13.556;2023-03-20T13:04:48;101307.69;;;13.05;77.62
7052;BME280;3567;52.444;13.556;2023-03-20T13:07:20;101305.47;;;13.14;76.76
7052;BME280;3567;52.444;13.556;2023-03-20T13:18:18;101299.38;;;12.95;76.02
7052;BME280;3567;52.444;13.556;2023-03-20T13:29:09;101293.16;;;12.52;77.36
7052;BME280;3567;52.444;13.556;2023-03-20T13:39:44;101283.41;;;12.70;78.39
7052;BME280;3567;52.444;13.556;2023-03-20T13:42:16;101279.22;;;12.74;78.61
7052;BME280;3567;52.444;13.556;2023-03-20T13:44:43;101280.03;;;12.74;77.70
7052;BME280;3567;52.444;13.556;2023-03-20T13:47:23;101277.53;;;12.73;77.64
7052;BME280;3567;52.444;13.556;2023-03-20T13:52:22;101270.63;;;12.95;78.25
7052;BME280;3567;52.444;13.556;2023-03-20T13:58:13;101269.50;;;13.38;76.43
7052;BME280;3567;52.444;13.556;2023-03-20T14:03:18;101273.34;;;13.42;75.33
7052;BME280;3567;52.444;13.556;2023-03-20T14:05:48;101274.78;;;13.33;76.50
7052;BME280;3567;52.444;13.556;2023-03-20T14:13:56;101273.03;;;12.85;76.98
7052;BME280;3567;52.444;13.556;2023-03-20T14:16:26;101269.38;;;12.68;77.80
7052;BME280;3567;52.444;13.556;2023-03-20T14:21:49;101274.56;;;12.51;78.89
7052;BME280;3567;52.444;13.556;2023-03-20T14:24:16;101277.59;;;12.43;79.34
7052;BME280;3567;52.444;13.556;2023-03-20T14:26:47;101271.16;;;12.44;79.84
7052;BME280;3567;52.444;13.556;2023-03-20T14:31:39;101260.22;;;12.27;80.46
7052;BME280;3567;52.444;13.556;2023-03-20T14:36:50;101270.16;;;12.08;81.22
7052;BME280;3567;52.444;13.556;2023-03-20T14:39:48;101269.88;;;11.98;82.50
7052;BME280;3567;52.444;13.556;2023-03-20T14:42:41;101275.78;;;11.88;82.78
7052;BME280;3567;52.444;13.556;2023-03-20T14:51:03;101276.34;;;11.72;83.66
7052;BME280;3567;52.444;13.556;2023-03-20T14:53:30;101276.78;;;11.69;84.08
7052;BME280;3567;52.444;13.556;2023-03-20T14:58:48;101274.31;;;11.67;84.61
7052;BME280;3567;52.444;13.556;2023-03-20T15:03:55;101267.53;;;11.65;85.61
7052;BME280;3567;52.444;13.556;2023-03-20T15:06:25;101264.09;;;11.58;85.77
7052;BME280;3567;52.444;13.556;2023-03-20T15:09:05;101261.66;;;11.56;86.18
7052;BME280;3567;52.444;13.556;2023-03-20T15:11:32;101261.69;;;11.49;85.93
7052;BME280;3567;52.444;13.556;2023-03-20T15:13:59;101262.97;;;11.47;86.03
7052;BME280;3567;52.444;13.556;2023-03-20T15:16:30;101256.78;;;11.46;86.14